Latest Coastal Weather Observations for Cape Willoughby

IDS60701

Issued at 2:15 pm CST Wednesday 20 August 2014 (issued every 10 minutes, with the page automatically refreshed every 10 minutes)

About coastal observations | Map of coastal stations | Coastal observations for SA | Marine services | Other Formats
Station Details ID: 022803 Name: CAPE WILLOUGHBY Lat: -35.84 Lon: 138.13 Height: 55.0 m
Data from the previous 72 hours. | See also: Recent months at Cape Willoughby
Date/Time
CST
Temp

°C
Wind Pressure Rain
since 9am
mm
Weather Cloud Vis
km
Sea
Height
m
Swell
Dir
 
Speed
knots
Gust
knots
hPa Trend Height
m
Period
s
Dir
20/02:00pm 12.0 ENE 8 11 1027.2 - 0.0 - - - - - - -
20/01:30pm 12.0 ENE 8 11 1027.2 - 0.0 - - - - - - -
20/01:00pm 11.9 NE 11 13 1027.5 - 0.0 - - - - - - -
20/12:30pm 12.2 NE 11 14 1027.8 - 0.0 - - - - - - -
20/12:00pm 12.2 NE 13 17 1028.0 - 0.0 - - - - - - -
20/11:30am 12.0 ENE 13 17 1028.3 - 0.0 - - - - - - -
20/11:00am 12.0 ENE 13 16 1028.4 - 0.0 - - - - - - -
20/10:30am 12.0 NE 12 15 1028.5 - 0.0 - - - - - - -
20/10:00am 11.4 ENE 12 15 1028.5 - 0.0 - - - - - - -
20/09:30am 10.9 ENE 12 15 1028.5 - 0.0 - - - - - - -
20/09:00am 10.8 NE 11 14 1028.4 - - - - - - - - -
20/08:30am 11.0 ENE 12 19 1028.2 - - - - - - - - -
20/08:00am 11.0 SE 10 14 1027.8 - - - - - - - - -
20/07:30am 11.4 E 14 20 1027.6 - - - - - - - - -
20/07:00am 11.1 E 12 17 1027.2 - - - - - - - - -
20/06:30am 11.4 E 10 14 1026.9 - - - - - - - - -
20/06:00am 11.1 ENE 10 13 1026.8 - - - - - - - - -
20/05:30am 10.8 NE 11 13 1026.6 - - - - - - - - -
20/05:00am 11.2 ESE 10 14 1026.5 - - - - - - - - -
20/04:30am 11.7 SE 11 14 1026.2 - - - - - - - - -
20/04:00am 11.7 ESE 13 16 1026.1 - - - - - - - - -
20/03:30am 11.5 E 10 14 1026.1 - - - - - - - - -
20/03:00am 11.3 ESE 5 8 1026.2 - 0.0 - - - - - - -
20/02:30am 11.1 E 5 7 1026.5 - - - - - - - - -
20/02:00am 10.9 ENE 6 8 1026.6 - - - - - - - - -
20/01:30am 11.0 E 6 9 1026.6 - - - - - - - - -
20/01:00am 11.0 E 9 11 1026.7 - - - - - - - - -
20/12:30am 11.5 SE 12 15 1026.7 - - - - - - - - -
20/12:00am 11.7 SE 10 14 1026.8 - - - - - - - - -
 
Date/Time
CST
Temp

°C
Wind Pressure Rain
since 9am
mm
Weather Cloud Vis
km
Sea
Height
m
Swell
Dir
 
Speed
knots
Gust
knots
hPa Trend Height
m
Period
s
Dir
19/11:30pm 11.9 SE 12 15 1026.8 - - - - - - - - -
19/11:00pm 11.8 SE 11 15 1026.8 - - - - - - - - -
19/10:30pm 11.6 SE 10 16 1027.0 - - - - - - - - -
19/10:00pm 11.4 SE 14 18 1027.1 - - - - - - - - -
19/09:30pm 11.9 SE 11 18 1027.1 - - - - - - - - -
19/09:00pm 11.8 SE 12 14 1027.2 - 0.0 - - - - - - -
19/08:30pm 11.9 ESE 12 14 1027.2 - - - - - - - - -
19/08:00pm 12.1 SSE 10 13 1027.0 - - - - - - - - -
19/07:30pm 12.1 SSE 8 12 1027.1 - - - - - - - - -
19/07:00pm 11.9 SSE 9 14 1027.0 - - - - - - - - -
19/06:30pm 12.0 SSE 9 15 1026.6 - - - - - - - - -
19/06:00pm 11.9 SSE 8 12 1026.4 - - - - - - - - -
19/05:30pm 11.9 SSE 10 16 1026.1 - - - - - - - - -
19/05:00pm 11.9 SSE 9 12 1025.9 - - - - - - - - -
19/04:30pm 11.7 S 7 9 1025.9 - - - - - - - - -
19/04:00pm 11.9 S 4 7 1025.8 - - - - - - - - -
19/03:30pm 12.0 SE 5 6 1025.9 - - - - - - - - -
19/03:00pm 12.2 SE 5 7 1025.8 - - - - - - - - -
19/01:00pm 12.4 ESE 6 9 1026.1 - 0.0 - - - - - - -
19/12:30pm 12.4 ESE 7 10 1026.4 - 0.0 - - - - - - -
19/12:00pm 12.2 ESE 8 10 1026.8 - 0.0 - - - - - - -
19/11:30am 11.9 ESE 11 16 1027.0 - 0.0 - - - - - - -
19/11:00am 13.3 ESE 8 10 1027.1 - 0.0 - - - - - - -
19/10:30am 12.9 E 7 9 1027.2 - 0.0 - - - - - - -
19/10:00am 12.6 E 10 13 1027.1 - 0.0 - - - - - - -
19/09:30am 11.9 ESE 8 10 1027.0 - 0.0 - - - - - - -
19/09:00am 11.8 ESE 10 14 1026.8 - 0.0 - - - - - - -
19/08:30am 12.0 ESE 8 11 1026.5 - 0.0 - - - - - - -
19/08:00am 11.8 SSE 5 8 1026.4 - 0.0 - - - - - - -
19/07:30am 11.6 ESE 10 13 1026.2 - 0.0 - - - - - - -
19/07:00am 11.5 SE 11 17 1026.0 - 0.0 - - - - - - -
19/06:30am 11.8 SSE 14 18 1025.5 - 0.0 - - - - - - -
19/06:00am 11.7 SE 14 18 1025.4 - 0.0 - - - - - - -
19/05:30am 11.7 SE 10 13 1025.3 - 0.0 - - - - - - -
19/05:00am 11.8 SSE 8 12 1025.3 - 0.0 - - - - - - -
19/04:30am 11.8 SSE 8 14 1025.1 - 0.0 - - - - - - -
19/04:00am 11.7 S 10 14 1024.9 - 0.0 - - - - - - -
19/03:30am 11.7 SSE 8 10 1025.0 - 0.0 - - - - - - -
19/03:00am 11.6 SSE 11 17 1025.1 - 0.0 - - - - - - -
19/02:30am 11.7 SSE 12 17 1025.1 - 0.0 - - - - - - -
19/02:00am 11.7 SSE 10 14 1025.5 - 0.0 - - - - - - -
19/01:30am 11.7 SSE 12 15 1025.6 - 0.0 - - - - - - -
19/01:00am 11.7 SSE 8 12 1025.7 - 0.0 - - - - - - -
19/12:30am 11.8 SSE 10 13 1025.7 - 0.0 - - - - - - -
19/12:00am 11.8 SE 13 16 1025.8 - 0.0 - - - - - - -
 
Date/Time
CST
Temp

°C
Wind Pressure Rain
since 9am
mm
Weather Cloud Vis
km
Sea
Height
m
Swell
Dir
 
Speed
knots
Gust
knots
hPa Trend Height
m
Period
s
Dir
18/11:30pm 11.9 SE 11 15 1025.8 - 0.0 - - - - - - -
18/11:00pm 11.9 SSE 9 13 1025.8 - 0.0 - - - - - - -
18/10:30pm 11.8 SE 11 14 1025.9 - 0.0 - - - - - - -
18/10:00pm 12.0 SSE 11 14 1026.0 - 0.0 - - - - - - -
18/09:30pm 12.0 SE 12 15 1025.9 - 0.0 - - - - - - -
18/09:00pm 11.9 SE 10 14 1025.9 - 0.0 - - - - - - -
18/08:30pm 11.7 SE 10 13 1025.8 - 0.0 - - - - - - -
18/08:00pm 11.6 SE 8 11 1025.6 - 0.0 - - - - - - -
18/07:30pm 11.6 SSE 10 14 1025.3 - 0.0 - - - - - - -
18/07:00pm 11.7 SSE 10 14 1025.1 - 0.0 - - - - - - -
18/06:30pm 11.6 SSE 9 12 1024.8 - 0.0 - - - - - - -
18/06:00pm 11.7 SSE 10 13 1024.5 - 0.0 - - - - - - -
18/05:30pm 11.4 SE 6 9 1024.2 - 0.0 - - - - - - -
18/05:00pm 11.9 SSE 7 11 1023.9 - 0.0 - - - - - - -
18/04:30pm 12.0 SSE 4 6 1023.8 - 0.0 - - - - - - -
18/04:00pm 12.3 SE 5 9 1023.8 - 0.0 - - - - - - -
18/03:30pm 12.4 ESE 8 11 1023.6 - 0.0 - - - - - - -
18/03:00pm 12.6 ESE 6 8 1023.7 - 0.0 - - - - - - -
18/02:30pm 12.7 ESE 7 9 1023.5 - 0.0 - - - - - - -
18/02:00pm 12.8 E 8 11 1023.5 - 0.0 - - - - - - -
18/01:30pm 12.9 E 7 9 1023.8 - 0.0 - - - - - - -
18/01:00pm 12.8 ENE 7 9 1024.0 - 0.0 - - - - - - -
18/12:30pm 13.3 E 5 8 1024.3 - 0.0 - - - - - - -
18/12:00pm 13.4 E 7 9 1024.6 - 0.0 - - - - - - -
18/11:30am 13.3 E 8 11 1024.9 - 0.0 - - - - - - -
18/11:00am 13.1 ESE 11 14 1025.1 - 0.0 - - - - - - -
18/10:30am 13.2 SSE 11 13 1025.1 - 0.0 - - - - - - -
18/10:00am 12.5 SSE 11 14 1025.2 - 0.0 - - - - - - -
18/09:30am 12.6 SE 10 12 1025.1 - 0.0 - - - - - - -
18/09:00am 11.7 S 4 5 1025.1 - 0.0 - - - - - - -
18/08:30am 11.4 SSE 6 8 1024.9 - 0.0 - - - - - - -
18/08:00am 10.9 SE 12 15 1024.6 - 0.0 - - - - - - -
18/07:30am 10.3 SSE 17 22 1024.3 - 0.0 - - - - - - -
18/07:00am 11.2 S 9 12 1024.2 - 0.0 - - - - - - -
18/06:30am 11.3 S 12 20 1023.7 - 0.0 - - - - - - -
18/06:00am 11.7 SSE 10 14 1023.6 - 0.0 - - - - - - -
18/05:30am 11.5 S 9 12 1023.4 - 0.0 - - - - - - -
18/05:00am 11.9 S 12 15 1023.2 - 0.0 - - - - - - -
18/04:30am 11.3 S 10 13 1023.1 - 0.0 - - - - - - -
18/04:00am 11.8 S 15 21 1022.9 - 0.0 - - - - - - -
18/03:30am 11.9 S 12 16 1022.9 - 0.0 - - - - - - -
18/03:00am 12.1 S 11 14 1022.9 - 0.0 - - - - - - -
18/02:30am 12.1 S 12 16 1023.3 - 0.0 - - - - - - -
18/02:00am 12.1 S 10 14 1023.6 - 0.0 - - - - - - -
18/01:30am 12.1 S 11 14 1023.7 - 0.0 - - - - - - -
18/01:00am 11.8 SSE 9 12 1023.8 - 0.0 - - - - - - -
18/12:30am 12.0 SSE 9 13 1023.8 - 0.0 - - - - - - -
18/12:00am 12.0 S 9 12 1023.8 - 0.0 - - - - - - -
 
Date/Time
CST
Temp

°C
Wind Pressure Rain
since 9am
mm
Weather Cloud Vis
km
Sea
Height
m
Swell
Dir
 
Speed
knots
Gust
knots
hPa Trend Height
m
Period
s
Dir
17/11:30pm 12.0 SSE 12 16 1023.9 - 0.0 - - - - - - -
17/11:00pm 11.6 SSE 13 17 1023.8 - 0.0 - - - - - - -
17/10:30pm 11.1 S 19 25 1023.7 - 0.0 - - - - - - -
17/10:00pm 12.4 SSE 12 15 1023.7 - 0.0 - - - - - - -
17/09:30pm 12.5 SSE 11 14 1023.7 - 0.0 - - - - - - -
17/09:00pm 12.1 S 11 14 1023.6 - 0.0 - - - - - - -
17/08:30pm 12.1 SSE 13 18 1023.3 - 0.0 - - - - - - -
17/08:00pm 11.8 SSE 13 16 1023.3 - 0.0 - - - - - - -
17/07:30pm 11.7 SSE 16 19 1023.0 - 0.0 - - - - - - -
17/07:00pm 12.2 S 13 18 1022.9 - 0.0 - - - - - - -
17/06:30pm 12.3 S 15 17 1022.5 - 0.0 - - - - - - -
17/06:00pm 12.2 S 15 20 1022.0 - 0.0 - - - - - - -
17/05:30pm 12.0 S 16 20 1021.6 - 0.0 - - - - - - -
17/05:00pm 12.2 S 16 19 1021.6 - 0.0 - - - - - - -
17/04:30pm 12.7 S 14 17 1021.2 - 0.0 - - - - - - -
17/04:00pm 12.6 S 15 19 1021.0 - 0.0 - - - - - - -
17/03:30pm 13.0 S 13 18 1021.1 - 0.0 - - - - - - -
17/03:00pm 13.2 S 12 17 1021.0 - 0.0 - - - - - - -
17/02:30pm 13.0 S 14 18 1020.6 - 0.0 - - - - - - -

Other Formats:

Comma delimited format used in spreadsheet applications
http://www.bom.gov.au/fwo/IDS60701/IDS60701.94822.axf

JavaScript Object Notation format (JSON) in row-major order
http://www.bom.gov.au/fwo/IDS60701/IDS60701.94822.json